createdAt,value
2018-04-23T00:01:14.323Z,18.00
2018-04-23T00:03:43.461Z,18.00
2018-04-23T00:06:12.749Z,18.10
2018-04-23T00:08:41.687Z,18.10
2018-04-23T00:11:09.977Z,18.00
2018-04-23T00:13:38.253Z,18.10
2018-04-23T00:16:07.448Z,18.20
2018-04-23T00:18:35.752Z,18.20
2018-04-23T00:21:04.010Z,18.10
2018-04-23T00:23:32.274Z,18.00
2018-04-23T00:26:00.569Z,18.00
2018-04-23T00:28:28.872Z,18.00
2018-04-23T00:30:58.100Z,18.10
2018-04-23T00:33:26.397Z,18.00
2018-04-23T00:35:55.781Z,18.10
2018-04-23T00:38:24.293Z,18.10
2018-04-23T00:40:53.205Z,18.00
2018-04-23T00:43:21.533Z,17.90
2018-04-23T00:45:49.810Z,18.00
2018-04-23T00:48:18.063Z,17.90
2018-04-23T00:50:46.368Z,17.80
2018-04-23T00:53:27.293Z,17.70
2018-04-23T00:55:55.573Z,17.70
2018-04-23T00:58:23.885Z,17.60
2018-04-23T01:00:52.179Z,17.50
2018-04-23T01:03:21.371Z,17.50
2018-04-23T01:05:49.664Z,17.50
2018-04-23T01:08:17.934Z,17.40
2018-04-23T01:10:46.220Z,17.50
2018-04-23T01:13:14.509Z,17.50
2018-04-23T01:15:43.818Z,17.50
2018-04-23T01:18:14.085Z,17.60
2018-04-23T01:20:43.455Z,17.60
2018-04-23T01:23:14.605Z,17.60
2018-04-23T01:25:44.144Z,17.60
2018-04-23T01:28:13.725Z,17.60
2018-04-23T01:30:42.002Z,17.70
2018-04-23T01:33:10.325Z,17.70
2018-04-23T01:35:38.590Z,17.70
2018-04-23T01:38:07.844Z,17.70
2018-04-23T01:40:36.168Z,17.50
2018-04-23T01:43:04.428Z,17.50
2018-04-23T01:45:32.731Z,17.50
2018-04-23T01:48:01.053Z,17.60
2018-04-23T01:50:29.336Z,17.60
2018-04-23T01:52:57.629Z,17.50
2018-04-23T01:55:25.922Z,17.50
2018-04-23T01:57:54.386Z,17.50
2018-04-23T02:00:23.425Z,17.40
2018-04-23T02:02:51.706Z,17.30
2018-04-23T02:05:20.005Z,17.40
2018-04-23T02:07:47.547Z,17.30
2018-04-23T02:10:15.825Z,17.30
2018-04-23T02:12:43.356Z,17.30
2018-04-23T02:15:13.597Z,17.40
2018-04-23T02:17:41.893Z,17.20
2018-04-23T02:20:09.395Z,17.20
2018-04-23T02:22:37.696Z,17.10
2018-04-23T02:25:06.882Z,17.00
2018-04-23T02:27:35.188Z,17.00
2018-04-23T02:30:03.483Z,17.00
2018-04-23T02:32:31.771Z,17.00
2018-04-23T02:35:00.061Z,17.00
2018-04-23T02:37:27.598Z,17.00
2018-04-23T02:39:55.852Z,16.90
2018-04-23T02:42:25.435Z,17.00
2018-04-23T02:44:53.720Z,16.80
2018-04-23T02:47:26.591Z,16.80
2018-04-23T02:49:55.441Z,16.80
2018-04-23T02:52:23.777Z,16.80
2018-04-23T02:54:52.046Z,16.80
2018-04-23T02:57:20.336Z,16.80
2018-04-23T02:59:48.594Z,16.80
2018-04-23T03:02:16.858Z,16.80
2018-04-23T03:04:45.150Z,16.80
2018-04-23T03:07:13.409Z,16.80
2018-04-23T03:09:44.925Z,16.80
2018-04-23T03:12:13.278Z,16.80
2018-04-23T03:14:42.387Z,16.80
2018-04-23T03:17:10.671Z,16.80
2018-04-23T03:19:39.002Z,16.80
2018-04-23T03:22:07.300Z,16.70
2018-04-23T03:24:35.640Z,16.70
2018-04-23T03:27:03.897Z,16.70
2018-04-23T03:29:32.148Z,16.60
2018-04-23T03:32:00.425Z,16.60
2018-04-23T03:34:28.716Z,16.40
2018-04-23T03:37:00.980Z,16.40
2018-04-23T03:39:29.268Z,16.40
2018-04-23T03:41:57.625Z,16.50
2018-04-23T03:44:25.904Z,16.50
2018-04-23T03:46:55.356Z,16.50
2018-04-23T03:49:24.479Z,16.50
2018-04-23T03:51:52.822Z,16.50
2018-04-23T03:54:21.133Z,16.50
2018-04-23T03:56:48.640Z,16.50
2018-04-23T03:59:16.149Z,16.60
2018-04-23T04:01:44.483Z,16.50
2018-04-23T04:04:13.920Z,16.50
2018-04-23T04:06:43.339Z,16.30
2018-04-23T04:09:13.940Z,16.00
2018-04-23T04:11:43.161Z,15.90
2018-04-23T04:14:24.133Z,15.80
2018-04-23T04:16:57.284Z,15.90
2018-04-23T04:19:31.317Z,16.00
2018-04-23T04:21:59.594Z,16.00
2018-04-23T04:24:27.908Z,16.10
2018-04-23T04:26:56.217Z,16.20
2018-04-23T04:29:28.464Z,16.00
2018-04-23T04:31:56.730Z,16.00
2018-04-23T04:34:28.589Z,15.90
2018-04-23T04:36:56.857Z,16.10
2018-04-23T04:39:25.129Z,16.00
2018-04-23T04:41:54.728Z,15.90
2018-04-23T04:44:23.468Z,15.90
2018-04-23T04:46:51.748Z,15.70
2018-04-23T04:49:20.056Z,15.80
2018-04-23T04:51:47.595Z,15.80
2018-04-23T04:54:19.121Z,15.90
2018-04-23T04:56:47.392Z,15.80
2018-04-23T04:59:15.701Z,15.80
2018-04-23T05:01:43.228Z,15.80
2018-04-23T05:04:12.637Z,15.60
2018-04-23T05:06:41.709Z,15.60
2018-04-23T05:09:10.033Z,15.50
2018-04-23T05:11:38.319Z,15.40
2018-04-23T05:14:06.584Z,15.40
2018-04-23T05:16:40.567Z,15.50
2018-04-23T05:19:08.830Z,15.60
2018-04-23T05:21:36.362Z,15.60
2018-04-23T05:24:04.623Z,15.60
2018-04-23T05:26:32.909Z,15.60
2018-04-23T05:29:01.175Z,15.70
2018-04-23T05:31:30.409Z,15.60
2018-04-23T05:33:58.684Z,15.40
2018-04-23T05:36:26.980Z,15.40
2018-04-23T05:38:55.257Z,15.70
2018-04-23T05:41:24.845Z,15.60
2018-04-23T05:43:54.071Z,15.50
2018-04-23T05:46:22.372Z,15.60
2018-04-23T05:48:50.629Z,15.50
2018-04-23T05:51:18.897Z,15.60
2018-04-23T05:53:47.197Z,15.50
2018-04-23T05:56:15.497Z,15.60
2018-04-23T05:58:43.793Z,15.50
2018-04-23T06:01:12.063Z,15.40
2018-04-23T06:03:42.320Z,15.40
2018-04-23T06:06:10.594Z,15.40
2018-04-23T06:08:38.913Z,15.50
2018-04-23T06:11:07.194Z,15.50
2018-04-23T06:13:35.448Z,15.60
2018-04-23T06:16:11.574Z,15.50
2018-04-23T06:18:39.873Z,15.50
2018-04-23T06:21:08.166Z,15.40
2018-04-23T06:23:36.430Z,15.40
2018-04-23T06:26:04.732Z,15.40
2018-04-23T06:28:32.993Z,15.30
2018-04-23T06:31:01.299Z,15.30
2018-04-23T06:33:29.580Z,15.20
2018-04-23T06:35:57.880Z,15.20
2018-04-23T06:38:26.148Z,15.10
2018-04-23T06:40:54.432Z,15.10
2018-04-23T06:43:22.712Z,15.20
2018-04-23T06:45:51.938Z,15.10
2018-04-23T06:48:20.224Z,15.20
2018-04-23T06:50:48.487Z,15.10
2018-04-23T06:53:16.810Z,15.10
2018-04-23T06:55:45.127Z,15.10
2018-04-23T06:58:13.428Z,15.10
2018-04-23T07:00:42.629Z,15.00
2018-04-23T07:03:11.675Z,15.10
2018-04-23T07:05:39.969Z,15.10
2018-04-23T07:08:08.220Z,15.10
2018-04-23T07:10:35.741Z,15.10
2018-04-23T07:13:04.014Z,15.20
2018-04-23T07:15:32.343Z,15.20
2018-04-23T07:18:00.617Z,15.10
2018-04-23T07:20:30.021Z,15.10
2018-04-23T07:22:59.112Z,15.20
2018-04-23T07:25:28.257Z,15.30
2018-04-23T07:27:56.513Z,15.40
2018-04-23T07:30:24.040Z,15.40
2018-04-23T07:32:52.304Z,15.60
2018-04-23T07:35:20.592Z,15.60
2018-04-23T07:37:48.879Z,15.50
2018-04-23T07:40:22.993Z,15.60
2018-04-23T07:42:51.282Z,15.70
2018-04-23T07:45:19.560Z,15.50
2018-04-23T07:47:47.915Z,15.60
2018-04-23T07:50:17.165Z,15.60
2018-04-23T07:52:45.453Z,15.50
2018-04-23T07:55:13.739Z,15.50
2018-04-23T07:57:41.858Z,15.50
2018-04-23T08:00:10.157Z,15.60
2018-04-23T08:02:38.419Z,15.70
2018-04-23T08:05:06.710Z,15.80
2018-04-23T08:07:34.957Z,15.90
2018-04-23T08:10:03.235Z,16.00
2018-04-23T08:12:31.553Z,16.10
2018-04-23T08:14:59.827Z,16.10
2018-04-23T08:17:28.121Z,16.20
2018-04-23T08:19:56.378Z,16.20
2018-04-23T08:22:28.885Z,16.40
2018-04-23T08:24:57.559Z,16.40
2018-04-23T08:27:32.028Z,16.20
2018-04-23T08:30:00.287Z,16.20
2018-04-23T08:32:29.762Z,16.30
2018-04-23T08:34:58.050Z,16.40
2018-04-23T08:37:26.360Z,16.40
2018-04-23T08:39:54.625Z,16.60
2018-04-23T08:42:22.121Z,16.50
2018-04-23T08:44:50.430Z,16.80
2018-04-23T08:47:18.688Z,16.90
2018-04-23T08:49:46.951Z,17.00
2018-04-23T08:52:15.270Z,17.00
2018-04-23T08:54:43.565Z,17.00
2018-04-23T08:57:12.742Z,17.20
2018-04-23T08:59:41.688Z,17.30
2018-04-23T09:02:09.989Z,17.20
2018-04-23T09:04:38.252Z,17.30
2018-04-23T09:07:06.541Z,17.30
2018-04-23T09:09:34.859Z,17.40
2018-04-23T09:12:03.153Z,17.50
2018-04-23T09:14:31.418Z,17.40
2018-04-23T09:16:59.722Z,17.30
2018-04-23T09:19:33.693Z,17.30
2018-04-23T09:22:01.980Z,17.30
2018-04-23T09:24:30.247Z,17.40
2018-04-23T09:26:59.840Z,17.30
2018-04-23T09:29:28.106Z,17.30
2018-04-23T09:31:58.398Z,17.30
2018-04-23T09:34:26.660Z,17.30
2018-04-23T09:36:54.946Z,17.40
2018-04-23T09:39:23.233Z,17.30
2018-04-23T09:41:51.500Z,17.40
2018-04-23T09:44:19.789Z,17.70
2018-04-23T09:46:55.140Z,17.70
2018-04-23T09:49:23.393Z,17.60
2018-04-23T09:51:50.913Z,17.60
2018-04-23T09:54:19.177Z,17.80
2018-04-23T09:56:47.465Z,17.90
2018-04-23T09:59:15.756Z,18.10
2018-04-23T10:01:50.942Z,18.10
2018-04-23T10:04:21.004Z,17.80
2018-04-23T10:06:49.269Z,17.70
2018-04-23T10:09:17.561Z,17.70
2018-04-23T10:11:45.844Z,17.70
2018-04-23T10:14:14.096Z,17.40
2018-04-23T10:16:43.552Z,17.40
2018-04-23T10:19:12.849Z,17.60
2018-04-23T10:21:42.193Z,17.40
2018-04-23T10:24:10.453Z,17.40
2018-04-23T10:26:38.753Z,17.60
2018-04-23T10:29:07.054Z,17.80
2018-04-23T10:31:38.884Z,17.90
2018-04-23T10:34:07.167Z,18.10
2018-04-23T10:36:35.454Z,18.30
2018-04-23T10:39:02.973Z,18.30
2018-04-23T10:41:31.253Z,18.20
2018-04-23T10:43:59.585Z,18.40
2018-04-23T10:46:28.885Z,18.10
2018-04-23T10:48:57.667Z,18.20
2018-04-23T10:51:27.709Z,18.40
2018-04-23T10:53:55.992Z,18.50
2018-04-23T10:56:24.286Z,18.60
2018-04-23T10:58:51.793Z,18.60
2018-04-23T11:01:20.073Z,18.80
2018-04-23T11:03:48.373Z,19.00
2018-04-23T11:06:16.687Z,19.10
2018-04-23T11:08:44.959Z,19.00
2018-04-23T11:11:13.245Z,19.10
2018-04-23T11:13:43.622Z,19.00
2018-04-23T11:16:11.925Z,19.10
2018-04-23T11:18:40.218Z,19.30
2018-04-23T11:21:08.473Z,19.60
2018-04-23T11:23:36.773Z,19.70
2018-04-23T11:26:05.033Z,19.90
2018-04-23T11:28:33.330Z,19.80
2018-04-23T11:31:01.605Z,19.80
2018-04-23T11:33:29.869Z,19.70
2018-04-23T11:35:58.166Z,19.90
2018-04-23T11:38:26.424Z,19.70
2018-04-23T11:40:53.944Z,19.60
2018-04-23T11:43:22.205Z,19.80
2018-04-23T11:45:50.541Z,20.00
2018-04-23T11:48:18.833Z,20.10
2018-04-23T11:50:47.117Z,20.10
2018-04-23T11:53:15.380Z,20.30
2018-04-23T11:55:43.834Z,20.30
2018-04-23T11:58:13.261Z,20.10
2018-04-23T12:00:42.956Z,19.80
2018-04-23T12:03:12.368Z,19.70
2018-04-23T12:05:40.674Z,19.80
2018-04-23T12:08:08.989Z,19.90
2018-04-23T12:10:37.289Z,19.90
2018-04-23T12:13:04.801Z,19.90
2018-04-23T12:15:33.097Z,20.10
2018-04-23T12:18:01.429Z,20.00
2018-04-23T12:20:29.974Z,20.00
2018-04-23T12:22:58.606Z,20.00
2018-04-23T12:25:26.913Z,20.00
2018-04-23T12:27:55.928Z,20.20
2018-04-23T12:30:24.197Z,20.10
2018-04-23T12:32:52.513Z,20.00
2018-04-23T12:35:20.945Z,19.90
2018-04-23T12:37:49.253Z,19.90
2018-04-23T12:40:17.957Z,19.80
2018-04-23T12:42:54.029Z,19.60
2018-04-23T12:45:22.329Z,19.80
2018-04-23T12:47:51.584Z,19.90
2018-04-23T12:50:19.883Z,19.90
2018-04-23T12:53:07.913Z,19.70
2018-04-23T12:55:36.178Z,19.40
2018-04-23T12:58:04.508Z,19.40
2018-04-23T13:00:32.783Z,19.50
2018-04-23T13:03:03.073Z,19.40
2018-04-23T13:05:31.381Z,19.70
2018-04-23T13:07:59.662Z,19.80
2018-04-23T13:10:28.923Z,19.90
2018-04-23T13:12:57.660Z,19.80
2018-04-23T13:15:25.954Z,19.80
2018-04-23T13:17:54.226Z,19.70
2018-04-23T13:20:22.529Z,19.80
2018-04-23T13:22:50.798Z,19.90
2018-04-23T13:25:19.087Z,20.10
2018-04-23T13:27:47.348Z,20.20
2018-04-23T13:30:15.650Z,20.50
2018-04-23T13:32:43.909Z,20.50
2018-04-23T13:35:13.303Z,20.10
2018-04-23T13:37:42.309Z,19.90
2018-04-23T13:40:10.589Z,19.70
2018-04-23T13:42:38.925Z,19.50
2018-04-23T13:45:10.602Z,19.60
2018-04-23T13:47:38.907Z,19.60
2018-04-23T13:50:07.203Z,19.80
2018-04-23T13:52:34.689Z,19.80
2018-04-23T13:55:03.948Z,19.80
2018-04-23T13:57:32.291Z,19.90
2018-04-23T14:00:01.553Z,19.80
2018-04-23T14:02:29.868Z,19.70
2018-04-23T14:04:58.162Z,19.90
2018-04-23T14:07:26.426Z,20.00
2018-04-23T14:09:54.733Z,19.90
2018-04-23T14:12:23.001Z,19.70
2018-04-23T14:14:52.191Z,19.40
2018-04-23T14:17:20.472Z,19.40
2018-04-23T14:19:48.733Z,19.40
2018-04-23T14:22:17.025Z,19.40
2018-04-23T14:24:45.285Z,19.50
2018-04-23T14:27:13.553Z,19.50
2018-04-23T14:29:42.836Z,19.50
2018-04-23T14:32:12.207Z,19.50
2018-04-23T14:34:40.501Z,19.40
2018-04-23T14:37:08.833Z,19.30
2018-04-23T14:39:37.128Z,19.30
2018-04-23T14:42:05.456Z,19.10
2018-04-23T14:44:33.722Z,19.20
2018-04-23T14:47:02.977Z,19.20
2018-04-23T14:49:31.249Z,19.10
2018-04-23T14:51:59.556Z,18.90
2018-04-23T14:54:29.390Z,18.80
2018-04-23T14:56:57.771Z,18.90
2018-04-23T14:59:26.108Z,18.80
2018-04-23T15:01:54.337Z,18.70
2018-04-23T15:04:22.638Z,18.70
2018-04-23T15:06:50.895Z,18.80
2018-04-23T15:09:19.187Z,18.70
2018-04-23T15:11:47.490Z,18.90
2018-04-23T15:14:15.749Z,19.20
2018-04-23T15:16:44.009Z,19.40
2018-04-23T15:19:13.544Z,19.50
2018-04-23T15:21:42.885Z,19.60
2018-04-23T15:24:12.183Z,19.60
2018-04-23T15:26:39.678Z,19.60
2018-04-23T15:29:07.988Z,19.60
2018-04-23T15:31:36.260Z,19.40
2018-04-23T15:34:04.555Z,19.10
2018-04-23T15:36:32.834Z,19.10
2018-04-23T15:39:01.138Z,19.00
2018-04-23T15:41:29.439Z,19.20
2018-04-23T15:43:57.784Z,19.20
2018-04-23T15:46:26.089Z,19.20
2018-04-23T15:48:54.358Z,19.10
2018-04-23T15:51:22.649Z,19.10
2018-04-23T15:53:50.990Z,19.00
2018-04-23T15:56:19.268Z,19.10
2018-04-23T15:58:47.553Z,18.90
2018-04-23T16:01:15.866Z,19.00
2018-04-23T16:03:44.131Z,19.10
2018-04-23T16:06:13.571Z,18.90
2018-04-23T16:08:42.816Z,18.80
2018-04-23T16:11:11.075Z,18.70
2018-04-23T16:13:39.385Z,18.80
2018-04-23T16:16:07.672Z,18.90
2018-04-23T16:18:36.070Z,18.90
2018-04-23T16:21:04.329Z,18.90
2018-04-23T16:23:32.630Z,19.00
2018-04-23T16:26:00.926Z,18.80
2018-04-23T16:28:29.034Z,18.80
2018-04-23T16:30:57.736Z,18.70
2018-04-23T16:33:26.016Z,18.60
2018-04-23T16:35:54.310Z,18.50
2018-04-23T16:38:21.808Z,18.50
2018-04-23T16:40:50.093Z,18.60
2018-04-23T16:43:18.360Z,18.70
2018-04-23T16:45:46.655Z,18.70
2018-04-23T16:48:14.950Z,18.80
2018-04-23T16:50:43.265Z,18.50
2018-04-23T16:53:13.040Z,18.10
2018-04-23T16:55:42.294Z,18.10
2018-04-23T16:58:10.589Z,18.10
2018-04-23T17:00:38.847Z,18.20
2018-04-23T17:03:07.148Z,18.20
2018-04-23T17:05:35.409Z,18.40
2018-04-23T17:08:03.780Z,18.40
2018-04-23T17:10:32.111Z,18.50
2018-04-23T17:12:59.623Z,18.50
2018-04-23T17:15:29.054Z,18.10
2018-04-23T17:17:57.588Z,17.90
2018-04-23T17:20:25.877Z,17.80
2018-04-23T17:22:54.168Z,17.60
2018-04-23T17:25:22.470Z,17.60
2018-04-23T17:27:52.714Z,17.60
2018-04-23T17:30:21.005Z,17.70
2018-04-23T17:32:48.505Z,17.60
2018-04-23T17:35:16.806Z,17.50
2018-04-23T17:37:45.072Z,17.40
2018-04-23T17:40:15.816Z,17.30
2018-04-23T17:42:43.321Z,17.30
2018-04-23T17:45:12.382Z,17.40
2018-04-23T17:47:40.703Z,17.40
2018-04-23T17:50:08.972Z,17.40
2018-04-23T17:52:37.246Z,17.30
2018-04-23T17:55:05.609Z,17.30
2018-04-23T17:57:33.094Z,17.20
2018-04-23T18:00:01.377Z,17.20
2018-04-23T18:02:29.711Z,17.40
2018-04-23T18:04:58.876Z,17.30
2018-04-23T18:07:27.850Z,17.30
2018-04-23T18:09:56.112Z,17.20
2018-04-23T18:12:24.416Z,17.10
2018-04-23T18:14:52.673Z,17.10
2018-04-23T18:17:21.065Z,17.10
2018-04-23T18:19:49.323Z,16.90
2018-04-23T18:22:16.847Z,16.80
2018-04-23T18:24:45.146Z,16.90
2018-04-23T18:27:15.499Z,16.90
2018-04-23T18:29:43.800Z,16.80
2018-04-23T18:32:12.411Z,16.80
2018-04-23T18:34:42.296Z,16.80
2018-04-23T18:37:13.312Z,16.80
2018-04-23T18:39:42.557Z,16.80
2018-04-23T18:42:10.125Z,16.80
2018-04-23T18:44:38.398Z,16.80
2018-04-23T18:47:07.744Z,16.80
2018-04-23T18:49:36.065Z,16.80
2018-04-23T18:52:04.353Z,16.70
2018-04-23T18:54:32.732Z,16.70
2018-04-23T18:57:01.023Z,16.70
2018-04-23T18:59:29.287Z,16.70
2018-04-23T19:01:56.825Z,16.80
2018-04-23T19:04:25.161Z,16.70
2018-04-23T19:06:53.429Z,16.70
2018-04-23T19:09:21.741Z,16.60
2018-04-23T19:11:49.325Z,16.60
2018-04-23T19:14:17.613Z,16.60
2018-04-23T19:16:45.925Z,16.50
2018-04-23T19:19:14.205Z,16.50
2018-04-23T19:21:44.491Z,16.40
2018-04-23T19:24:13.520Z,16.40
2018-04-23T19:26:42.669Z,16.40
2018-04-23T19:29:11.301Z,16.30
2018-04-23T19:31:39.656Z,16.10
2018-04-23T19:34:07.874Z,16.00
2018-04-23T19:36:36.189Z,15.80
2018-04-23T19:39:07.158Z,15.70
2018-04-23T19:41:35.493Z,15.70
2018-04-23T19:44:03.768Z,15.70
2018-04-23T19:46:32.165Z,15.70
2018-04-23T19:49:00.448Z,15.80
2018-04-23T19:51:30.072Z,15.80
2018-04-23T19:53:58.679Z,15.80
2018-04-23T19:56:27.031Z,15.80
2018-04-23T19:58:55.342Z,15.80
2018-04-23T20:01:23.649Z,15.80
2018-04-23T20:03:51.945Z,15.70
2018-04-23T20:06:20.281Z,15.70
2018-04-23T20:08:48.549Z,15.70
2018-04-23T20:11:16.928Z,15.70
2018-04-23T20:13:45.216Z,15.70
2018-04-23T20:16:13.492Z,15.70
2018-04-23T20:18:42.797Z,15.70
2018-04-23T20:21:11.064Z,15.60
2018-04-23T20:23:44.149Z,15.50
2018-04-23T20:26:13.535Z,15.50
2018-04-23T20:28:43.033Z,15.40
2018-04-23T20:31:12.496Z,15.40
2018-04-23T20:33:42.515Z,15.40
2018-04-23T20:36:12.510Z,15.40
2018-04-23T20:38:43.872Z,15.30
2018-04-23T20:41:12.320Z,15.30
2018-04-23T20:43:40.625Z,15.10
2018-04-23T20:46:08.967Z,15.10
2018-04-23T20:48:37.275Z,15.10
2018-04-23T20:51:05.568Z,15.20
2018-04-23T20:53:34.801Z,15.10
2018-04-23T20:56:03.095Z,15.10
2018-04-23T20:58:31.448Z,15.10
2018-04-23T21:00:59.735Z,15.10
2018-04-23T21:03:30.334Z,15.00
2018-04-23T21:05:57.908Z,15.00
2018-04-23T21:08:26.245Z,14.90
2018-04-23T21:10:54.530Z,14.80
2018-04-23T21:13:22.785Z,14.80
2018-04-23T21:15:51.089Z,14.80
2018-04-23T21:18:19.348Z,14.70
2018-04-23T21:20:47.665Z,14.70
2018-04-23T21:23:15.957Z,14.70
2018-04-23T21:25:44.259Z,14.60
2018-04-23T21:28:13.893Z,14.60
2018-04-23T21:30:43.493Z,14.50
2018-04-23T21:33:12.657Z,14.50
2018-04-23T21:35:41.795Z,14.50
2018-04-23T21:38:10.081Z,14.50
2018-04-23T21:40:38.345Z,14.40
2018-04-23T21:43:06.635Z,14.40
2018-04-23T21:45:34.897Z,14.50
2018-04-23T21:48:03.153Z,14.50
2018-04-23T21:50:31.451Z,14.40
2018-04-23T21:52:59.748Z,14.40
2018-04-23T21:55:28.795Z,14.40
2018-04-23T21:57:56.288Z,14.40
2018-04-23T22:00:24.586Z,14.40
2018-04-23T22:02:52.869Z,14.40
2018-04-23T22:05:21.234Z,14.20
2018-04-23T22:07:49.474Z,14.10
2018-04-23T22:10:17.754Z,14.10
2018-04-23T22:12:46.059Z,14.10
2018-04-23T22:15:14.320Z,14.10
2018-04-23T22:17:43.686Z,14.20
2018-04-23T22:20:11.967Z,14.20
2018-04-23T22:22:40.234Z,14.10
2018-04-23T22:25:08.527Z,14.10
2018-04-23T22:27:36.788Z,14.00
2018-04-23T22:30:05.048Z,13.90
2018-04-23T22:32:33.333Z,13.90
2018-04-23T22:35:01.596Z,13.90
2018-04-23T22:37:30.295Z,13.90
2018-04-23T22:39:59.505Z,13.90
2018-04-23T22:42:29.013Z,13.80
2018-04-23T22:44:57.867Z,13.80
2018-04-23T22:47:26.133Z,13.70
2018-04-23T22:49:54.437Z,13.70
2018-04-23T22:52:22.693Z,13.60
2018-04-23T22:54:50.957Z,13.60
2018-04-23T22:57:19.228Z,13.60
2018-04-23T22:59:47.520Z,13.50
2018-04-23T23:02:15.816Z,13.40
2018-04-23T23:04:44.105Z,13.30
2018-04-23T23:07:13.809Z,13.30
2018-04-23T23:09:42.537Z,13.30
2018-04-23T23:12:11.046Z,13.30
2018-04-23T23:14:39.321Z,13.30
2018-04-23T23:17:07.625Z,13.50
2018-04-23T23:19:35.910Z,13.50
2018-04-23T23:22:04.192Z,13.50
2018-04-23T23:24:32.464Z,13.40
2018-04-23T23:27:00.744Z,13.40
2018-04-23T23:29:29.733Z,13.40
2018-04-23T23:31:58.022Z,13.40
2018-04-23T23:34:26.276Z,13.40
2018-04-23T23:36:54.576Z,13.40
2018-04-23T23:39:22.833Z,13.30
2018-04-23T23:41:51.088Z,13.20
2018-04-23T23:44:19.384Z,13.20
2018-04-23T23:46:47.636Z,13.20
2018-04-23T23:49:15.984Z,13.20
2018-04-23T23:51:43.442Z,13.20
2018-04-23T23:54:12.735Z,13.00
2018-04-23T23:56:41.041Z,12.90
2018-04-23T23:59:09.295Z,12.80
